Time;durP1;ratioP1;P1;durP2;ratioP2;P2;SDS_P1;SDS_P2;PMS_P1;PMS_P2;Temp;Humidity;BMP_temperature;BMP_pressure;BME280_temperature;BME280_humidity;BME280_pressure;Samples;Min_cycle;Max_cycle;Signal;HPM_P1;HPM_P2
2023/10/16 00:01:27;;;;;;;0.10;0.10;;;;;;;4.15;100.00;99768.31;5115711;28;20297;-58
2023/10/16 00:04:14;;;;;;;0.10;0.10;;;;;;;4.01;100.00;99771.34;5115452;28;20233;-58
2023/10/16 00:07:01;;;;;;;0.10;0.10;;;;;;;4.07;100.00;99771.19;5115404;28;20190;-58
2023/10/16 00:09:53;;;;;;;0.10;0.10;;;;;;;3.90;100.00;99768.16;5114126;28;20186;-58
2023/10/16 00:12:42;;;;;;;0.10;0.10;;;;;;;3.96;100.00;99765.38;5115346;28;20209;-58
2023/10/16 00:15:28;;;;;;;0.10;0.10;;;;;;;3.78;100.00;99763.25;5115060;28;20256;-58
2023/10/16 00:18:17;;;;;;;0.10;0.10;;;;;;;3.95;100.00;99771.50;5115165;28;20301;-58
2023/10/16 00:21:05;;;;;;;0.10;0.10;;;;;;;3.51;100.00;99765.69;5115103;28;20202;-57
2023/10/16 00:23:52;;;;;;;0.10;0.10;;;;;;;3.85;100.00;99765.63;5113927;28;20198;-58
2023/10/16 00:26:48;;;;;;;0.10;0.10;;;;;;;3.93;100.00;99768.91;5114725;28;20260;-58
2023/10/16 00:29:36;;;;;;;0.10;0.10;;;;;;;4.13;100.00;99771.00;5114903;28;20248;-58
2023/10/16 00:32:23;;;;;;;0.10;0.10;;;;;;;3.76;100.00;99765.88;5113968;28;20198;-58
2023/10/16 00:35:11;;;;;;;0.10;0.10;;;;;;;3.51;100.00;99767.44;5114424;28;20233;-58
2023/10/16 00:37:58;;;;;;;0.10;0.10;;;;;;;3.66;100.00;99775.75;5114577;28;20273;-58
2023/10/16 00:40:51;;;;;;;0.10;0.10;;;;;;;3.19;100.00;99774.34;5114771;28;20276;-58
2023/10/16 00:43:40;;;;;;;0.10;0.10;;;;;;;3.13;100.00;99774.47;5114771;28;20198;-58
2023/10/16 00:46:32;;;;;;;0.10;0.10;;;;;;;3.17;100.00;99776.13;5114592;28;20190;-58
2023/10/16 00:49:23;;;;;;;0.10;0.10;;;;;;;3.29;100.00;99774.97;5113768;28;20198;-57
2023/10/16 00:52:10;;;;;;;0.10;0.10;;;;;;;3.41;100.00;99783.38;5114694;28;20271;-57
2023/10/16 00:54:58;;;;;;;0.10;0.10;;;;;;;3.20;100.00;99778.69;5112065;28;20281;-58
2023/10/16 00:57:47;;;;;;;0.10;0.10;;;;;;;3.23;100.00;99782.97;5113488;28;20209;-58
2023/10/16 01:00:38;;;;;;;0.10;0.10;;;;;;;3.45;100.00;99782.41;5114420;28;20320;-57
2023/10/16 01:03:31;;;;;;;0.10;0.10;;;;;;;3.39;100.00;99774.72;5113460;28;20286;-58
2023/10/16 01:06:24;;;;;;;0.10;0.10;;;;;;;3.37;100.00;99773.00;5113398;28;20232;-58
2023/10/16 01:09:22;;;;;;;0.10;0.10;;;;;;;3.21;100.00;99775.16;5112853;28;20198;-58
2023/10/16 01:12:11;;;;;;;0.10;0.10;;;;;;;3.22;100.00;99782.13;5114217;28;20676;-57
2023/10/16 01:14:59;;;;;;;0.10;0.10;;;;;;;3.24;100.00;99782.94;5113063;28;20211;-57
2023/10/16 01:17:47;;;;;;;0.10;0.10;;;;;;;3.20;100.00;99781.31;5113989;28;20217;-58
2023/10/16 01:20:34;;;;;;;0.10;0.10;;;;;;;3.66;100.00;99790.59;5113029;28;20241;-58
2023/10/16 01:23:23;;;;;;;0.10;0.10;;;;;;;-144.59;100.00;78078.69;5112828;28;20202;-58
2023/10/16 01:26:14;;;;;;;0.10;0.10;;;;;;;3.85;100.00;99783.13;5113022;28;20194;-58
2023/10/16 01:29:06;;;;;;;0.10;0.10;;;;;;;3.85;100.00;99783.13;5113966;28;20209;-57
2023/10/16 01:31:53;;;;;;;0.10;0.10;;;;;;;3.34;100.00;99775.72;5113841;28;20201;-58
2023/10/16 01:34:41;;;;;;;0.10;0.10;;;;;;;3.30;100.00;99785.41;5113454;28;20220;-57
2023/10/16 01:37:29;;;;;;;0.10;0.10;;;;;;;3.33;100.00;99784.47;5112657;28;20206;-58
2023/10/16 01:40:21;;;;;;;0.10;0.10;;;;;;;3.25;100.00;99795.13;5111339;28;20256;-58
2023/10/16 01:43:08;;;;;;;0.10;0.10;;;;;;;3.42;100.00;99798.19;5112748;28;20240;-58
2023/10/16 01:45:58;;;;;;;0.10;0.10;;;;;;;3.13;100.00;99798.91;5112619;28;20193;-58
2023/10/16 01:48:47;;;;;;;0.10;0.10;;;;;;;3.25;100.00;99804.72;5112338;28;20241;-57
2023/10/16 01:51:35;;;;;;;0.10;0.10;;;;;;;3.31;100.00;99800.22;5111692;28;20198;-58
2023/10/16 01:54:23;;;;;;;0.10;0.10;;;;;;;3.15;100.00;99798.84;5112269;28;20290;-58
2023/10/16 01:57:12;;;;;;;0.10;0.10;;;;;;;3.20;100.00;99778.69;5113061;28;20201;-58
2023/10/16 02:00:00;;;;;;;0.10;0.10;;;;;;;3.03;100.00;99780.84;5112489;28;20214;-58
2023/10/16 02:02:46;;;;;;;0.10;0.10;;;;;;;3.14;100.00;99774.44;5113263;28;20271;-58
2023/10/16 02:05:33;;;;;;;0.10;0.10;;;;;;;3.10;100.00;99774.56;5113230;28;20657;-57
2023/10/16 02:08:21;;;;;;;0.10;0.10;;;;;;;3.31;100.00;99770.56;5111029;28;20190;-58
2023/10/16 02:11:10;;;;;;;0.10;0.10;;;;;;;3.46;100.00;99770.16;5113353;28;20198;-58
2023/10/16 02:13:59;;;;;;;0.10;0.10;;;;;;;3.27;100.00;99763.66;5113218;28;20269;-58
2023/10/16 02:16:47;;;;;;;0.10;0.10;;;;;;;3.54;100.00;99757.72;5111929;28;20218;-58
2023/10/16 02:19:33;;;;;;;0.10;0.10;;;;;;;3.06;100.00;99757.19;5113228;28;20241;-57
2023/10/16 02:22:22;;;;;;;0.10;0.10;;;;;;;2.40;100.00;99760.44;5113060;28;20194;-57
2023/10/16 02:25:10;;;;;;;0.10;0.10;;;;;;;2.23;100.00;99759.06;5111954;28;20738;-58
2023/10/16 02:27:58;;;;;;;0.10;0.10;;;;;;;2.26;100.00;99756.38;5112331;28;20674;-58
2023/10/16 02:30:49;;;;;;;0.10;0.10;;;;;;;2.46;100.00;99747.25;5112966;28;20190;-57
2023/10/16 02:33:37;;;;;;;0.10;0.10;;;;;;;2.50;100.00;99754.09;5111822;28;20384;-58
2023/10/16 02:36:23;;;;;;;0.10;0.10;;;;;;;2.68;100.00;99745.88;5113054;28;20217;-57
2023/10/16 02:39:27;;;;;;;0.10;0.10;;;;;;;2.81;100.00;99747.31;5110785;28;20273;-58
2023/10/16 02:42:14;;;;;;;0.10;0.10;;;;;;;2.84;100.00;99746.38;5113090;28;20197;-58
2023/10/16 02:45:02;;;;;;;0.10;0.10;;;;;;;3.26;100.00;99743.63;5113082;28;20300;-58
2023/10/16 02:47:51;;;;;;;0.10;0.10;;;;;;;2.92;100.00;99741.84;5112141;28;20194;-58
2023/10/16 02:50:41;;;;;;;0.10;0.10;;;;;;;2.91;100.00;99747.13;5112863;28;20235;-57
2023/10/16 02:53:29;;;;;;;0.10;0.10;;;;;;;2.91;100.00;99783.75;5110487;28;20258;-58
2023/10/16 02:56:17;;;;;;;0.10;0.10;;;;;;;2.41;100.00;99746.47;5111845;28;20214;-58
2023/10/16 02:59:08;;;;;;;0.10;0.10;;;;;;;2.34;100.00;99742.28;5111945;28;20645;-58
2023/10/16 03:01:56;;;;;;;0.10;0.10;;;;;;;2.21;100.00;99750.34;5113511;28;20658;-58
2023/10/16 03:04:48;;;;;;;0.10;0.10;;;;;;;2.58;100.00;99752.19;5115730;28;20186;-57
2023/10/16 03:07:35;;;;;;;0.10;0.10;;;;;;;3.26;100.00;99760.19;5116640;28;20190;-58
2023/10/16 03:10:23;;;;;;;0.10;0.10;;;;;;;3.19;100.00;99750.78;5114972;28;20236;-58
2023/10/16 03:13:13;;;;;;;0.10;0.10;;;;;;;2.82;100.00;99750.78;5116499;28;20190;-58
2023/10/16 03:16:05;;;;;;;0.10;0.10;;;;;;;2.72;100.00;99755.38;5116330;28;20252;-58
2023/10/16 03:18:51;;;;;;;0.10;0.10;;;;;;;2.62;100.00;99751.25;5116484;28;20194;-58
2023/10/16 03:21:40;;;;;;;0.10;0.10;;;;;;;2.66;100.00;99752.88;5116358;28;20195;-58
2023/10/16 03:24:27;;;;;;;0.10;0.10;;;;;;;-144.59;100.00;99752.88;5115182;28;20194;-58
2023/10/16 03:27:28;;;;;;;0.10;0.10;;;;;;;2.50;100.00;99759.34;5116247;28;20220;-58
2023/10/16 03:30:17;;;;;;;0.10;0.10;;;;;;;2.40;100.00;99761.28;5115138;28;20240;-58
2023/10/16 03:33:04;;;;;;;0.10;0.10;;;;;;;2.57;100.00;99756.56;5115909;28;20194;-58
2023/10/16 03:35:51;;;;;;;0.10;0.10;;;;;;;2.61;100.00;99761.75;5116057;28;20267;-57
2023/10/16 03:38:41;;;;;;;0.10;0.10;;;;;;;2.64;100.00;99759.91;5114822;28;20321;-57
2023/10/16 03:41:32;;;;;;;0.10;0.10;;;;;;;2.62;100.00;99768.69;5115922;28;20318;-58
2023/10/16 03:44:21;;;;;;;0.10;0.10;;;;;;;2.62;100.00;99766.59;5115986;28;20267;-57
2023/10/16 03:47:10;;;;;;;0.10;0.10;;;;;;;3.29;100.00;99764.50;5115896;28;20202;-58
2023/10/16 03:49:58;;;;;;;0.10;0.10;;;;;;;2.70;100.00;99765.03;5115746;28;20260;-58
2023/10/16 03:52:46;;;;;;;0.10;0.10;;;;;;;2.96;100.00;99763.53;5115819;28;20231;-58
2023/10/16 03:55:41;;;;;;;0.10;0.10;;;;;;;2.75;100.00;99765.75;5115387;28;20218;-58
2023/10/16 03:58:27;;;;;;;0.10;0.10;;;;;;;2.60;100.00;99755.63;5115750;28;20212;-58
2023/10/16 04:01:21;;;;;;;0.10;0.10;;;;;;;2.36;100.00;99758.78;5115696;28;20185;-58
2023/10/16 04:04:12;;;;;;;0.10;0.10;;;;;;;2.22;100.00;99762.56;5115842;28;20399;-58
2023/10/16 04:06:59;;;;;;;0.10;0.10;;;;;;;2.07;100.00;99762.84;5115387;28;20217;-58
2023/10/16 04:09:50;;;;;;;0.10;0.10;;;;;;;1.90;100.00;99763.16;5114142;28;20206;-57
2023/10/16 04:12:43;;;;;;;0.10;0.10;;;;;;;1.88;100.00;99761.50;5115376;28;20194;-58
2023/10/16 04:15:59;;;;;;;0.10;0.10;;;;;;;1.88;100.00;99766.72;5114978;28;20194;-58
2023/10/16 04:18:46;;;;;;;0.10;0.10;;;;;;;2.42;100.00;99767.38;5115282;28;20197;-58
2023/10/16 04:21:40;;;;;;;0.10;0.10;;;;;;;2.24;100.00;99771.22;5115126;28;20255;-58
2023/10/16 04:24:40;;;;;;;0.10;0.10;;;;;;;2.22;100.00;99765.16;5114110;28;20548;-58
2023/10/16 04:27:29;;;;;;;0.10;0.10;;;;;;;2.51;100.00;99758.44;5114863;28;20206;-58
2023/10/16 04:30:39;;;;;;;0.10;0.10;;;;;;;2.52;100.00;99761.06;5115006;28;20206;-58
2023/10/16 04:33:48;;;;;;;0.10;0.10;;;;;;;2.30;100.00;99762.38;5114984;28;20222;-58
2023/10/16 04:36:52;;;;;;;0.10;0.10;;;;;;;2.73;100.00;99767.56;5114983;28;20216;-58
2023/10/16 04:43:15;;;;;;;0.10;0.10;;;;;;;-144.59;100.00;99770.63;5106511;28;20268;-58
2023/10/16 04:46:16;;;;;;;0.10;0.10;;;;;;;2.45;100.00;99754.22;5114788;28;20210;-58
2023/10/16 04:49:04;;;;;;;0.10;0.10;;;;;;;2.25;100.00;99762.47;5114611;28;20197;-58
2023/10/16 04:51:56;;;;;;;0.10;0.10;;;;;;;2.54;100.00;99769.72;5114594;28;20197;-58
2023/10/16 04:55:02;;;;;;;0.10;0.10;;;;;;;2.55;100.00;99766.19;5113187;28;20264;-57
2023/10/16 04:57:53;;;;;;;0.10;0.10;;;;;;;2.57;100.00;99758.31;5114163;28;20233;-58
2023/10/16 05:00:57;;;;;;;0.10;0.10;;;;;;;2.29;100.00;99760.66;5114301;28;20669;-58
2023/10/16 05:04:14;;;;;;;0.10;0.10;;;;;;;2.58;100.00;99758.28;5114420;28;20189;-58
2023/10/16 05:06:56;;;;;;;0.10;0.10;;;;;;;2.58;100.00;99757.41;5114330;28;20183;-58
2023/10/16 05:10:12;;;;;;;0.10;0.10;;;;;;;3.27;100.00;99747.97;5113114;28;20272;-58
2023/10/16 05:19:29;;;;;;;0.10;0.10;;;;;;;3.25;100.00;99745.38;5111404;28;20198;-58
2023/10/16 06:14:35;;;;;;;0.10;0.10;;;;;;;3.81;100.00;99747.44;5113015;28;20646;-58
2023/10/16 06:17:23;;;;;;;0.10;0.10;;;;;;;3.69;100.00;99743.41;5112964;28;20217;-58
2023/10/16 06:20:19;;;;;;;0.10;0.10;;;;;;;3.95;100.00;99743.53;5112899;28;20198;-58
2023/10/16 06:23:10;;;;;;;0.10;0.10;;;;;;;3.50;100.00;99753.50;5111839;28;20243;-58
2023/10/16 06:26:01;;;;;;;0.10;0.10;;;;;;;4.29;100.00;99753.06;5113069;28;20309;-58
2023/10/16 06:28:52;;;;;;;0.10;0.10;;;;;;;-144.59;100.00;99753.06;5113250;28;20186;-58
2023/10/16 06:31:49;;;;;;;0.10;0.10;;;;;;;3.85;100.00;99752.53;5113155;28;20190;-58
2023/10/16 06:34:36;;;;;;;0.10;0.10;;;;;;;3.76;100.00;99754.53;5112779;28;20237;-58
2023/10/16 06:37:22;;;;;;;0.10;0.10;;;;;;;4.15;100.00;99748.25;5114533;28;20241;-58
2023/10/16 06:40:17;;;;;;;0.07;0.07;;;;;;;3.88;100.00;99749.84;5115935;28;20216;-58
2023/10/16 06:43:14;;;;;;;0.10;0.10;;;;;;;4.03;100.00;99753.81;5116973;28;20312;-58
2023/10/16 06:46:09;;;;;;;0.10;0.10;;;;;;;4.40;100.00;99752.75;5117103;28;20214;-58
2023/10/16 06:48:57;;;;;;;0.10;0.10;;;;;;;4.70;100.00;99749.22;5116013;28;20186;-58
2023/10/16 06:51:44;;;;;;;0.10;0.10;;;;;;;4.71;100.00;99750.06;5115764;28;20213;-58
2023/10/16 06:54:31;;;;;;;0.10;0.10;;;;;;;4.45;100.00;99751.72;5113472;28;20231;-58
2023/10/16 06:57:20;;;;;;;0.10;0.10;;;;;;;4.50;100.00;99754.19;5115732;28;20726;-58
2023/10/16 07:00:22;;;;;;;0.10;0.10;;;;;;;4.52;100.00;99747.13;5115437;28;21005;-58
2023/10/16 07:03:12;;;;;;;0.10;0.10;;;;;;;4.89;100.00;99758.22;5116819;28;20198;-58
2023/10/16 07:05:59;;;;;;;0.10;0.10;;;;;;;5.18;100.00;99756.44;5116544;28;20232;-58
2023/10/16 07:08:46;;;;;;;0.13;0.13;;;;;;;5.17;100.00;99762.63;5115438;28;20266;-58
2023/10/16 07:11:34;;;;;;;0.10;0.10;;;;;;;5.08;100.00;99760.28;5116702;28;20193;-58
2023/10/16 07:14:23;;;;;;;0.10;0.10;;;;;;;4.86;100.00;99760.09;5116566;28;20189;-58
2023/10/16 07:17:13;;;;;;;0.10;0.10;;;;;;;5.12;100.00;99752.28;5116398;28;20239;-58
2023/10/16 07:20:00;;;;;;;0.10;0.10;;;;;;;5.07;100.00;99748.91;5116537;28;20265;-57
2023/10/16 07:22:46;;;;;;;0.10;0.10;;;;;;;5.03;100.00;99754.34;5116232;28;20299;-57
2023/10/16 07:25:47;;;;;;;0.10;0.10;;;;;;;4.83;100.00;99761.06;5116371;28;20684;-57
2023/10/16 07:28:34;;;;;;;0.10;0.10;;;;;;;4.90;100.00;99761.72;5116348;28;20185;-57
2023/10/16 07:31:23;;;;;;;0.10;0.10;;;;;;;5.07;100.00;99761.19;5116141;28;20190;-57
2023/10/16 07:34:11;;;;;;;0.10;0.10;;;;;;;5.21;100.00;99766.88;5115936;28;20250;-57
2023/10/16 07:36:58;;;;;;;0.10;0.10;;;;;;;5.11;100.00;99774.16;5116183;28;20190;-57
2023/10/16 07:39:45;;;;;;;0.10;0.10;;;;;;;5.64;100.00;99771.53;5114749;28;20189;-57
2023/10/16 07:42:35;;;;;;;0.10;0.10;;;;;;;5.51;100.00;99769.41;5115991;28;20255;-57
2023/10/16 07:45:22;;;;;;;0.10;0.10;;;;;;;6.39;100.00;99779.44;5115964;28;20198;-57
2023/10/16 07:48:20;;;;;;;0.10;0.10;;;;;;;6.19;100.00;99777.53;5115001;28;20199;-57
2023/10/16 07:51:07;;;;;;;0.10;0.10;;;;;;;6.24;100.00;99780.00;5115837;28;20190;-57
2023/10/16 07:53:56;;;;;;;0.10;0.10;;;;;;;6.22;100.00;99781.81;5114128;28;20198;-57
2023/10/16 07:56:45;;;;;;;0.10;0.10;;;;;;;6.05;100.00;99784.19;5115642;28;20198;-58
2023/10/16 07:59:35;;;;;;;0.10;0.10;;;;;;;6.01;100.00;99778.19;5114459;28;20218;-57
2023/10/16 08:02:23;;;;;;;0.10;0.10;;;;;;;5.85;100.00;99777.84;5115582;28;20264;-57
2023/10/16 08:05:15;;;;;;;0.10;0.10;;;;;;;6.14;100.00;99783.88;5115563;28;20209;-58
2023/10/16 08:08:11;;;;;;;0.10;0.10;;;;;;;6.17;100.00;99778.50;5114443;28;20280;-58
2023/10/16 08:10:59;;;;;;;0.10;0.10;;;;;;;6.35;100.00;99782.22;5115473;28;20308;-57
2023/10/16 08:13:51;;;;;;;0.10;0.10;;;;;;;-144.59;100.00;99788.06;5115369;28;20199;-57
2023/10/16 08:16:39;;;;;;;0.10;0.10;;;;;;;6.56;100.00;99782.31;5115309;28;20205;-58
2023/10/16 08:19:31;;;;;;;0.10;0.10;;;;;;;6.50;100.00;99779.91;5115139;28;20214;-57
2023/10/16 08:22:25;;;;;;;0.10;0.10;;;;;;;6.25;100.00;99781.69;5115126;28;20190;-57
2023/10/16 08:25:30;;;;;;;0.10;0.10;;;;;;;6.33;100.00;99782.28;5112749;28;20190;-57
2023/10/16 08:28:20;;;;;;;0.10;0.10;;;;;;;6.18;100.00;99777.59;5114194;28;20206;-58
2023/10/16 08:31:22;;;;;;;0.10;0.10;;;;;;;6.22;100.00;99772.16;5114952;28;20206;-57
2023/10/16 08:34:10;;;;;;;0.10;0.10;;;;;;;6.81;100.00;99776.09;5114796;28;20237;-57
2023/10/16 08:36:58;;;;;;;0.10;0.10;;;;;;;6.39;100.00;99763.66;5115011;28;20197;-57
2023/10/16 08:39:48;;;;;;;0.10;0.10;;;;;;;6.39;100.00;99762.81;5113140;28;20229;-57
2023/10/16 08:42:36;;;;;;;0.10;0.10;;;;;;;6.62;100.00;99761.94;5114760;28;20236;-58
2023/10/16 08:45:24;;;;;;;0.10;0.10;;;;;;;6.57;100.00;99756.84;5114796;28;20271;-58
2023/10/16 08:48:17;;;;;;;0.10;0.10;;;;;;;7.04;100.00;99762.00;5114846;28;20189;-58
2023/10/16 08:51:08;;;;;;;0.10;0.10;;;;;;;7.15;100.00;99762.47;5114872;28;20190;-57
2023/10/16 08:54:01;;;;;;;0.10;0.10;;;;;;;7.13;100.00;99765.13;5112340;28;20191;-57
2023/10/16 08:56:49;;;;;;;0.10;0.10;;;;;;;7.10;100.00;99765.28;5114482;28;20198;-58
2023/10/16 08:59:39;;;;;;;0.10;0.10;;;;;;;7.30;100.00;99775.00;5113881;28;20536;-58
2023/10/16 09:02:28;;;;;;;0.10;0.10;;;;;;;7.30;100.00;99769.72;5114337;28;20229;-57
2023/10/16 09:05:16;;;;;;;0.10;0.10;;;;;;;7.64;100.00;99766.56;5114515;28;20239;-57
2023/10/16 09:08:03;;;;;;;0.10;0.10;;;;;;;7.21;100.00;99763.97;5112990;28;20194;-58
2023/10/16 09:10:50;;;;;;;0.10;0.10;;;;;;;7.42;100.00;99761.31;5114273;28;20190;-58
2023/10/16 09:13:38;;;;;;;0.10;0.10;;;;;;;7.58;100.00;99748.38;5114380;28;20206;-57
2023/10/16 09:16:30;;;;;;;0.10;0.10;;;;;;;7.62;100.00;99749.06;5113715;28;20209;-57
2023/10/16 09:19:19;;;;;;;0.10;0.10;;;;;;;7.63;100.00;99746.41;5113967;28;20221;-57
2023/10/16 09:22:08;;;;;;;0.10;0.10;;;;;;;7.71;100.00;99743.41;5114177;28;20190;-57
2023/10/16 09:24:58;;;;;;;0.10;0.10;;;;;;;7.79;100.00;99746.59;5112709;28;20186;-57
2023/10/16 09:27:49;;;;;;;0.10;0.10;;;;;;;7.79;100.00;99746.59;5113946;28;20236;-58
2023/10/16 09:30:37;;;;;;;0.10;0.10;;;;;;;7.89;100.00;99750.53;5113939;28;20190;-57
2023/10/16 09:33:24;;;;;;;0.10;0.10;;;;;;;8.00;100.00;99745.63;5113885;28;20219;-58
2023/10/16 09:36:18;;;;;;;0.10;0.10;;;;;;;8.03;100.00;99753.44;5113761;28;20272;-58
2023/10/16 09:39:16;;;;;;;0.10;0.10;;;;;;;8.07;100.00;99755.94;5112401;28;20268;-57
2023/10/16 09:42:06;;;;;;;0.00;0.00;;;;;;;8.50;100.00;99749.63;5113249;28;20206;-57
2023/10/16 09:45:07;;;;;;;0.10;0.10;;;;;;;8.53;100.00;99742.41;5113574;28;20723;-57
2023/10/16 09:48:06;;;;;;;0.10;0.10;;;;;;;8.80;100.00;99737.63;5113545;28;20673;-57
2023/10/16 09:50:56;;;;;;;0.10;0.10;;;;;;;8.68;100.00;99739.97;5113421;28;20186;-57
2023/10/16 09:53:43;;;;;;;0.10;0.10;;;;;;;8.96;100.00;99742.16;5112273;28;20198;-57
2023/10/16 09:56:35;;;;;;;0.10;0.10;;;;;;;9.01;100.00;99745.47;5113618;28;20313;-57
2023/10/16 09:59:31;;;;;;;0.10;0.10;;;;;;;9.52;100.00;99752.59;5113272;28;20260;-57
2023/10/16 10:02:19;;;;;;;0.10;0.10;;;;;;;9.52;100.00;99752.59;5113422;28;20316;-57
2023/10/16 10:05:10;;;;;;;0.10;0.10;;;;;;;8.84;100.00;99751.53;5113561;28;20266;-57
2023/10/16 10:07:59;;;;;;;0.10;0.10;;;;;;;9.06;100.00;99746.06;5112590;28;20198;-57
2023/10/16 10:11:17;;;;;;;0.10;0.10;;;;;;;9.48;100.00;99744.91;5113335;28;20665;-57
2023/10/16 10:14:26;;;;;;;0.10;0.10;;;;;;;-144.59;100.00;76220.59;5113372;28;20300;-57
2023/10/16 10:17:19;;;;;;;0.10;0.10;;;;;;;8.84;100.00;99744.47;5113464;28;20190;-57
2023/10/16 10:20:17;;;;;;;0.10;0.10;;;;;;;9.37;100.00;99745.47;5112983;28;20206;-58
2023/10/16 10:23:05;;;;;;;0.10;0.10;;;;;;;9.71;100.00;99736.66;5112092;28;20193;-57
2023/10/16 10:25:53;;;;;;;0.10;0.10;;;;;;;9.57;100.00;99729.44;5113241;28;20201;-57
2023/10/16 10:28:41;;;;;;;0.10;0.10;;;;;;;9.75;100.00;99736.44;5113326;28;20216;-57
2023/10/16 10:31:30;;;;;;;0.10;0.10;;;;;;;9.88;100.00;99731.38;5113208;28;20209;-57
2023/10/16 10:34:22;;;;;;;0.10;0.10;;;;;;;10.18;100.00;99728.03;5112867;28;20724;-57
2023/10/16 10:37:47;;;;;;;0.10;0.10;;;;;;;10.41;100.00;99726.81;5113213;28;20198;-58
2023/10/16 10:40:36;;;;;;;0.10;0.10;;;;;;;10.78;100.00;99721.22;5112824;28;20221;-58
2023/10/16 10:43:39;;;;;;;0.10;0.10;;;;;;;11.49;100.00;99723.38;5113080;28;20198;-58
2023/10/16 10:46:26;;;;;;;0.10;0.10;;;;;;;11.01;100.00;99713.78;5112934;28;20209;-58
2023/10/16 10:49:15;;;;;;;0.10;0.10;;;;;;;10.93;100.00;99716.03;5111884;28;20190;-58
2023/10/16 10:52:04;;;;;;;0.10;0.10;;;;;;;12.01;100.00;99701.69;5113002;28;20201;-58
2023/10/16 10:54:58;;;;;;;0.10;0.10;;;;;;;12.35;100.00;99704.91;5111604;28;20615;-58
2023/10/16 10:57:47;;;;;;;0.10;0.10;;;;;;;11.57;100.00;99699.88;5112938;28;20328;-58
2023/10/16 11:00:49;;;;;;;0.10;0.10;;;;;;;11.65;100.00;99694.97;5111726;28;20219;-58
2023/10/16 11:03:44;;;;;;;0.10;0.10;;;;;;;13.52;100.00;99691.97;5112911;28;20194;-58
2023/10/16 11:06:39;;;;;;;0.10;0.10;;;;;;;13.64;100.00;99688.47;5112834;28;20202;-58
2023/10/16 11:09:33;;;;;;;0.10;0.10;;;;;;;15.96;95.21;99673.31;5111571;28;20195;-58
2023/10/16 11:12:24;;;;;;;0.10;0.10;;;;;;;19.58;68.59;99669.13;5112684;28;20668;-59
2023/10/16 11:15:16;;;;;;;0.10;0.10;;;;;;;20.76;53.36;99656.03;5112893;28;20256;-59
2023/10/16 11:18:11;;;;;;;0.10;0.10;;;;;;;20.96;49.72;99654.91;5112816;28;20194;-57
2023/10/16 11:21:04;;;;;;;0.00;0.00;;;;;;;22.62;45.99;99650.41;5112239;28;20218;-57
2023/10/16 11:23:54;;;;;;;0.10;0.10;;;;;;;23.18;44.52;99642.66;5113178;28;20327;-57
2023/10/16 11:26:42;;;;;;;0.08;0.08;;;;;;;23.38;42.16;99635.91;5115017;28;20206;-57
2023/10/16 11:29:33;;;;;;;0.00;0.00;;;;;;;21.77;44.10;99641.31;5115987;28;20202;-57
2023/10/16 11:32:25;;;;;;;0.00;0.00;;;;;;;23.31;42.84;99634.88;5115797;28;20263;-57
2023/10/16 11:35:16;;;;;;;0.00;0.00;;;;;;;24.02;41.07;99625.19;5115447;28;20226;-57
2023/10/16 11:38:13;;;;;;;0.00;0.00;;;;;;;24.82;38.50;99620.53;5114711;28;20684;-57
2023/10/16 11:41:04;;;;;;;0.10;0.10;;;;;;;25.52;37.37;99622.25;5115837;28;20296;-58
2023/10/16 11:43:52;;;;;;;0.00;0.00;;;;;;;24.77;38.70;99612.06;5115919;28;20190;-58
2023/10/16 11:46:46;;;;;;;0.00;0.00;;;;;;;25.29;38.00;99612.28;5116057;28;20198;-58
2023/10/16 11:49:37;;;;;;;0.00;0.00;;;;;;;24.17;38.63;99613.50;5115823;28;20190;-58
2023/10/16 11:52:27;;;;;;;0.03;0.03;;;;;;;22.16;43.42;99612.09;5115759;28;20193;-57
2023/10/16 11:55:14;;;;;;;0.00;0.00;;;;;;;22.66;42.72;99610.41;5114463;28;20198;-57
2023/10/16 11:58:02;;;;;;;0.00;0.00;;;;;;;23.44;40.41;99608.19;5115464;28;20194;-58
2023/10/16 12:00:54;;;;;;;0.00;0.00;;;;;;;22.99;41.42;99601.41;5115515;28;20308;-58
2023/10/16 12:03:41;;;;;;;0.00;0.00;;;;;;;22.84;42.24;99605.78;5115421;28;20199;-57
2023/10/16 12:06:29;;;;;;;0.00;0.00;;;;;;;26.17;37.99;99602.63;5115379;28;20212;-58
2023/10/16 12:09:19;;;;;;;0.00;0.00;;;;;;;27.50;34.95;99592.22;5114124;28;20256;-58
2023/10/16 12:12:08;;;;;;;0.00;0.00;;;;;;;25.43;36.88;99598.94;5115400;28;20186;-58
2023/10/16 12:14:56;;;;;;;0.00;0.00;;;;;;;24.19;39.18;99589.78;5115114;28;20198;-58
2023/10/16 12:17:43;;;;;;;0.00;0.00;;;;;;;26.06;36.71;99587.63;5115210;28;20229;-58
2023/10/16 12:20:30;;;;;;;0.00;0.00;;;;;;;26.08;35.36;99584.72;5114916;28;20214;-58
2023/10/16 12:23:20;;;;;;;0.00;0.00;;;;;;;25.65;36.35;99581.75;5113810;28;20202;-58
2023/10/16 12:26:07;;;;;;;0.00;0.00;;;;;;;26.19;35.49;99579.66;5114916;28;20240;-58
2023/10/16 12:28:54;;;;;;;0.00;0.00;;;;;;;25.15;36.27;99574.22;5115140;28;20240;-58
2023/10/16 12:31:41;;;;;;;0.00;0.00;;;;;;;25.47;35.77;99573.94;5114947;28;20436;-58
2023/10/16 12:34:32;;;;;;;0.00;0.00;;;;;;;26.22;35.18;99568.41;5113957;28;20312;-58
2023/10/16 12:37:22;;;;;;;0.00;0.00;;;;;;;25.34;35.63;99566.44;5114951;28;20673;-58
2023/10/16 12:40:27;;;;;;;0.00;0.00;;;;;;;27.33;32.92;99566.34;5113695;28;20227;-58
2023/10/16 12:43:15;;;;;;;0.00;0.00;;;;;;;26.81;32.38;99559.31;5114814;28;20198;-58
2023/10/16 12:46:02;;;;;;;0.00;0.00;;;;;;;27.31;32.79;99552.94;5114363;28;20194;-58
2023/10/16 12:48:49;;;;;;;0.00;0.00;;;;;;;29.24;30.29;99557.44;5114564;28;20194;-58
2023/10/16 12:51:36;;;;;;;0.00;0.00;;;;;;;27.72;31.08;99545.94;5114553;28;20190;-58
2023/10/16 12:54:24;;;;;;;0.00;0.00;;;;;;;27.64;31.74;99542.28;5113306;28;20251;-58
2023/10/16 12:57:13;;;;;;;0.00;0.00;;;;;;;29.45;30.01;99542.75;5114535;28;20209;-58
2023/10/16 13:00:00;;;;;;;0.00;0.00;;;;;;;30.24;28.17;99545.38;5114370;28;20190;-58
2023/10/16 13:02:48;;;;;;;0.00;0.00;;;;;;;30.18;28.74;99536.13;5114318;28;20293;-58
2023/10/16 13:05:35;;;;;;;0.00;0.00;;;;;;;30.04;28.11;99534.50;5114476;28;20202;-58
2023/10/16 13:08:23;;;;;;;0.00;0.00;;;;;;;29.12;28.68;99529.09;5113035;28;20681;-58
2023/10/16 13:11:10;;;;;;;0.00;0.00;;;;;;;28.76;28.54;99533.03;5114105;28;20190;-58
2023/10/16 13:13:58;;;;;;;0.00;0.00;;;;;;;28.70;28.49;99525.66;5113202;28;20239;-58
2023/10/16 13:16:53;;;;;;;0.00;0.00;;;;;;;27.23;29.94;99522.31;5114157;28;20189;-58
2023/10/16 13:19:40;;;;;;;0.00;0.00;;;;;;;27.35;29.54;99528.91;5114201;28;20267;-58
2023/10/16 13:22:27;;;;;;;0.00;0.00;;;;;;;28.72;28.00;99513.50;5114087;28;20349;-59
2023/10/16 13:25:14;;;;;;;0.00;0.00;;;;;;;27.06;29.68;99522.59;5113151;28;20194;-57
2023/10/16 13:28:03;;;;;;;0.00;0.00;;;;;;;27.67;28.45;99522.88;5114032;28;20696;-57
2023/10/16 13:30:53;;;;;;;0.00;0.00;;;;;;;29.32;26.69;99508.94;5113944;28;20726;-57
2023/10/16 13:33:44;;;;;;;0.00;0.00;;;;;;;29.02;27.60;99505.78;5113388;28;20333;-58
2023/10/16 13:36:35;;;;;;;0.00;0.00;;;;;;;29.44;25.83;99514.63;5113953;28;20297;-58
2023/10/16 13:39:24;;;;;;;0.08;0.08;;;;;;;29.80;26.10;99505.13;5112575;28;20644;-58
2023/10/16 13:42:14;;;;;;;0.00;0.00;;;;;;;27.31;28.42;99511.25;5113399;28;20221;-58
2023/10/16 13:45:11;;;;;;;0.00;0.00;;;;;;;25.88;29.96;99503.00;5113764;28;20202;-57
2023/10/16 13:48:04;;;;;;;0.00;0.00;;;;;;;25.15;31.44;99511.88;5113780;28;20680;-58
2023/10/16 13:50:52;;;;;;;0.00;0.00;;;;;;;23.58;33.29;99510.13;5113469;28;20708;-57
2023/10/16 13:53:39;;;;;;;0.00;0.00;;;;;;;23.08;34.26;99505.81;5111965;28;20198;-57
2023/10/16 13:56:26;;;;;;;0.00;0.00;;;;;;;22.59;35.63;99507.63;5113360;28;20186;-57
2023/10/16 13:59:14;;;;;;;0.10;0.10;;;;;;;22.07;35.94;99501.56;5113288;28;20300;-57
2023/10/16 14:02:01;;;;;;;0.00;0.00;;;;;;;20.53;38.48;99505.69;5113184;28;20252;-57
2023/10/16 14:04:52;;;;;;;0.10;0.10;;;;;;;19.78;38.64;99503.28;5112640;28;20189;-57
2023/10/16 14:07:39;;;;;;;0.00;0.00;;;;;;;20.74;38.43;99508.06;5111790;28;20210;-57
2023/10/16 14:10:29;;;;;;;0.10;0.10;;;;;;;21.68;37.97;99508.28;5113347;28;20198;-57
2023/10/16 14:13:21;;;;;;;0.00;0.00;;;;;;;21.42;37.25;99502.06;5113456;28;20270;-57
2023/10/16 14:16:10;;;;;;;0.10;0.10;;;;;;;21.85;37.99;99498.44;5112717;28;20259;-57
2023/10/16 14:18:58;;;;;;;0.10;0.10;;;;;;;21.57;37.98;99492.38;5113346;28;20213;-56
2023/10/16 14:21:47;;;;;;;0.10;0.10;;;;;;;20.53;39.30;99491.41;5112864;28;20637;-57
2023/10/16 14:24:34;;;;;;;0.10;0.10;;;;;;;19.93;40.62;99493.75;5111973;28;20308;-57